createdAt,value
2018-09-19T00:02:23.798Z,54.74
2018-09-19T00:04:53.403Z,55.34
2018-09-19T00:07:22.928Z,54.55
2018-09-19T00:09:52.526Z,54.52
2018-09-19T00:12:22.063Z,54.85
2018-09-19T00:14:51.554Z,55.17
2018-09-19T00:17:21.062Z,55.75
2018-09-19T00:19:50.609Z,55.83
2018-09-19T00:22:20.204Z,55.35
2018-09-19T00:24:49.847Z,55.75
2018-09-19T00:27:19.449Z,56.73
2018-09-19T00:29:48.955Z,56.32
2018-09-19T00:32:18.519Z,56.55
2018-09-19T00:34:48.091Z,55.76
2018-09-19T00:37:17.623Z,56.38
2018-09-19T00:39:47.153Z,56.60
2018-09-19T00:42:16.671Z,56.66
2018-09-19T00:44:46.251Z,56.54
2018-09-19T00:47:15.730Z,56.53
2018-09-19T00:49:45.325Z,56.56
2018-09-19T00:52:14.845Z,56.86
2018-09-19T00:54:44.372Z,56.82
2018-09-19T00:57:13.942Z,58.01
2018-09-19T00:59:43.474Z,57.86
2018-09-19T01:02:13.010Z,58.31
2018-09-19T01:04:42.559Z,59.03
2018-09-19T01:07:12.137Z,59.20
2018-09-19T01:09:41.724Z,58.83
2018-09-19T01:12:11.283Z,58.86
2018-09-19T01:14:40.922Z,59.40
2018-09-19T01:17:10.411Z,58.63
2018-09-19T01:19:39.959Z,59.28
2018-09-19T01:22:09.508Z,58.98
2018-09-19T01:24:39.065Z,59.04
2018-09-19T01:27:08.652Z,58.88
2018-09-19T01:29:38.262Z,59.33
2018-09-19T01:32:08.124Z,58.65
2018-09-19T01:34:37.661Z,59.31
2018-09-19T01:37:07.299Z,58.28
2018-09-19T01:39:36.778Z,58.14
2018-09-19T01:42:06.407Z,58.82
2018-09-19T01:44:35.904Z,57.96
2018-09-19T01:47:05.475Z,58.11
2018-09-19T01:49:35.014Z,58.72
2018-09-19T01:52:04.547Z,58.04
2018-09-19T01:54:34.175Z,57.93
2018-09-19T01:57:03.713Z,58.29
2018-09-19T01:59:33.264Z,58.79
2018-09-19T02:02:02.755Z,58.35
2018-09-19T02:04:32.312Z,58.57
2018-09-19T02:07:01.916Z,58.18
2018-09-19T02:09:31.453Z,58.96
2018-09-19T02:12:00.983Z,58.73
2018-09-19T02:14:30.549Z,58.75
2018-09-19T02:17:00.086Z,58.47
2018-09-19T02:19:29.596Z,59.18
2018-09-19T02:21:59.101Z,59.61
2018-09-19T02:24:28.579Z,59.70
2018-09-19T02:26:58.225Z,58.72
2018-09-19T02:29:27.723Z,58.40
2018-09-19T02:31:57.244Z,58.92
2018-09-19T02:34:26.827Z,58.66
2018-09-19T02:36:56.381Z,58.66
2018-09-19T02:39:25.916Z,58.51
2018-09-19T02:41:55.506Z,58.80
2018-09-19T02:44:25.036Z,58.66
2018-09-19T02:46:54.628Z,58.92
2018-09-19T02:49:24.235Z,58.65
2018-09-19T02:51:57.886Z,58.64
2018-09-19T02:54:29.145Z,59.26
2018-09-19T02:56:58.798Z,58.92
2018-09-19T02:59:28.510Z,58.60
2018-09-19T03:01:58.170Z,58.36
2018-09-19T03:04:27.674Z,58.83
2018-09-19T03:06:57.223Z,58.47
2018-09-19T03:09:26.876Z,58.63
2018-09-19T03:11:56.374Z,59.02
2018-09-19T03:14:25.896Z,58.87
2018-09-19T03:16:55.431Z,59.06
2018-09-19T03:19:24.903Z,59.08
2018-09-19T03:21:54.470Z,59.39
2018-09-19T03:24:23.948Z,59.43
2018-09-19T03:26:53.502Z,59.82
2018-09-19T03:29:23.060Z,59.97
2018-09-19T03:31:52.578Z,60.21
2018-09-19T03:34:22.153Z,59.44
2018-09-19T03:36:51.663Z,59.56
2018-09-19T03:39:21.188Z,59.92
2018-09-19T03:41:50.727Z,60.25
2018-09-19T03:44:20.256Z,60.41
2018-09-19T03:46:49.788Z,61.14
2018-09-19T03:49:19.319Z,60.96
2018-09-19T03:51:48.851Z,61.06
2018-09-19T03:54:18.417Z,60.80
2018-09-19T03:56:47.952Z,61.23
2018-09-19T03:59:17.549Z,61.40
2018-09-19T04:01:47.134Z,61.43
2018-09-19T04:04:16.656Z,61.39
2018-09-19T04:06:46.161Z,61.68
2018-09-19T04:09:15.719Z,61.88
2018-09-19T04:11:45.215Z,61.84
2018-09-19T04:14:14.748Z,62.03
2018-09-19T04:16:44.375Z,61.84
2018-09-19T04:19:13.933Z,61.51
2018-09-19T04:21:52.755Z,61.88
2018-09-19T04:24:22.247Z,61.97
2018-09-19T04:26:51.775Z,62.25
2018-09-19T04:29:21.278Z,62.25
2018-09-19T04:31:50.839Z,61.63
2018-09-19T04:34:20.342Z,62.47
2018-09-19T04:36:49.875Z,61.80
2018-09-19T04:39:19.378Z,62.08
2018-09-19T04:41:48.923Z,61.67
2018-09-19T04:44:18.551Z,62.04
2018-09-19T04:46:48.079Z,61.30
2018-09-19T04:49:17.693Z,61.52
2018-09-19T04:51:47.243Z,60.73
2018-09-19T04:54:16.856Z,61.09
2018-09-19T04:56:46.372Z,60.67
2018-09-19T04:59:15.917Z,60.03
2018-09-19T05:01:45.456Z,60.46
2018-09-19T05:04:16.006Z,59.29
2018-09-19T05:06:45.562Z,59.07
2018-09-19T05:09:15.134Z,58.13
2018-09-19T05:11:44.637Z,57.64
2018-09-19T05:14:14.184Z,57.06
2018-09-19T05:16:43.682Z,57.13
2018-09-19T05:19:13.466Z,56.82
2018-09-19T05:21:43.059Z,56.49
2018-09-19T05:24:12.569Z,55.63
2018-09-19T05:26:42.126Z,55.91
2018-09-19T05:29:11.659Z,56.07
2018-09-19T05:31:41.236Z,54.84
2018-09-19T05:34:10.845Z,54.60
2018-09-19T05:36:40.395Z,53.99
2018-09-19T05:39:09.955Z,53.63
2018-09-19T05:41:39.518Z,53.54
2018-09-19T05:44:09.043Z,52.29
2018-09-19T05:46:38.578Z,52.19
2018-09-19T05:49:14.333Z,51.31
2018-09-19T05:51:43.961Z,51.58
2018-09-19T05:54:13.501Z,50.70
2018-09-19T05:56:43.104Z,49.94
2018-09-19T05:59:12.652Z,49.89
2018-09-19T06:01:42.296Z,49.04
2018-09-19T06:04:11.819Z,48.97
2018-09-19T06:06:42.529Z,48.22
2018-09-19T06:09:12.591Z,48.39
2018-09-19T06:11:42.152Z,47.47
2018-09-19T06:14:11.948Z,47.82
2018-09-19T06:16:41.441Z,47.06
2018-09-19T06:19:10.978Z,46.93
2018-09-19T06:21:40.502Z,46.58
2018-09-19T06:24:10.035Z,46.38
2018-09-19T06:26:39.640Z,46.25
2018-09-19T06:29:09.188Z,46.43
2018-09-19T06:31:38.693Z,46.33
2018-09-19T06:34:08.272Z,45.48
2018-09-19T06:36:37.972Z,46.06
2018-09-19T06:39:09.131Z,46.32
2018-09-19T06:41:38.738Z,46.04
2018-09-19T06:44:08.292Z,44.92
2018-09-19T06:46:37.874Z,44.60
2018-09-19T06:49:07.417Z,44.40
2018-09-19T06:51:36.979Z,44.68
2018-09-19T06:54:06.501Z,43.90
2018-09-19T06:56:36.093Z,43.77
2018-09-19T06:59:05.739Z,45.45
2018-09-19T07:01:35.403Z,44.91
2018-09-19T07:04:04.961Z,44.58
2018-09-19T07:06:34.532Z,44.32
2018-09-19T07:09:04.971Z,44.31
2018-09-19T07:11:34.472Z,43.66
2018-09-19T07:14:04.111Z,44.45
2018-09-19T07:16:33.656Z,43.54
2018-09-19T07:19:03.298Z,43.99
2018-09-19T07:21:32.772Z,43.44
2018-09-19T07:24:02.419Z,44.17
2018-09-19T07:26:31.967Z,44.43
2018-09-19T07:29:01.593Z,44.17
2018-09-19T07:31:31.131Z,43.77
2018-09-19T07:34:00.716Z,44.00
2018-09-19T07:36:30.277Z,44.47
2018-09-19T07:38:59.854Z,44.15
2018-09-19T07:41:29.372Z,43.69
2018-09-19T07:43:58.911Z,42.72
2018-09-19T07:46:28.620Z,43.13
2018-09-19T07:48:58.233Z,42.71
2018-09-19T07:51:27.861Z,42.25
2018-09-19T07:53:57.468Z,42.47
2018-09-19T07:56:26.994Z,42.54
2018-09-19T07:58:56.490Z,41.33
2018-09-19T08:01:26.076Z,41.67
2018-09-19T08:03:55.573Z,41.55
2018-09-19T08:06:25.109Z,41.12
2018-09-19T08:08:54.656Z,41.58
2018-09-19T08:11:24.221Z,41.67
2018-09-19T08:13:53.872Z,41.67
2018-09-19T08:16:23.470Z,41.10
2018-09-19T08:18:53.002Z,40.76
2018-09-19T08:21:22.574Z,40.87
2018-09-19T08:23:52.118Z,40.04
2018-09-19T08:26:21.673Z,40.38
2018-09-19T08:28:51.182Z,39.83
2018-09-19T08:31:20.770Z,40.55
2018-09-19T08:33:50.448Z,40.19
2018-09-19T08:36:20.080Z,39.41
2018-09-19T08:38:49.608Z,40.16
2018-09-19T08:41:19.281Z,39.92
2018-09-19T08:43:48.839Z,39.82
2018-09-19T08:46:18.335Z,40.07
2018-09-19T08:48:47.967Z,38.52
2018-09-19T08:51:17.539Z,39.05
2018-09-19T08:53:47.131Z,39.01
2018-09-19T08:56:16.698Z,39.04
2018-09-19T08:58:46.308Z,38.62
2018-09-19T09:01:15.842Z,38.98
2018-09-19T09:03:45.558Z,38.67
2018-09-19T09:06:15.135Z,38.96
2018-09-19T09:08:44.680Z,38.30
2018-09-19T09:11:14.281Z,38.20
2018-09-19T09:13:43.797Z,38.10
2018-09-19T09:16:13.365Z,39.21
2018-09-19T09:18:42.883Z,38.79
2018-09-19T09:21:12.691Z,38.89
2018-09-19T09:23:42.238Z,39.15
2018-09-19T09:26:11.953Z,38.00
2018-09-19T09:28:41.536Z,38.70
2018-09-19T09:31:11.183Z,38.19
2018-09-19T09:33:40.684Z,37.82
2018-09-19T09:36:10.226Z,37.39
2018-09-19T09:38:39.802Z,37.67
2018-09-19T09:41:09.523Z,37.65
2018-09-19T09:43:39.127Z,38.00
2018-09-19T09:46:08.778Z,38.31
2018-09-19T09:48:38.281Z,37.77
2018-09-19T09:51:07.858Z,37.80
2018-09-19T09:53:37.426Z,37.84
2018-09-19T09:56:07.098Z,37.54
2018-09-19T09:58:36.727Z,37.59
2018-09-19T10:01:06.391Z,37.18
2018-09-19T10:03:35.887Z,36.67
2018-09-19T10:06:05.542Z,36.73
2018-09-19T10:08:35.125Z,37.64
2018-09-19T10:11:04.704Z,37.93
2018-09-19T10:13:34.269Z,37.67
2018-09-19T10:16:03.808Z,37.51
2018-09-19T10:18:33.316Z,37.45
2018-09-19T10:21:03.039Z,36.84
2018-09-19T10:23:32.649Z,36.37
2018-09-19T10:26:02.161Z,36.70
2018-09-19T10:28:31.744Z,36.22
2018-09-19T10:31:01.253Z,36.31
2018-09-19T10:33:30.864Z,36.93
2018-09-19T10:36:00.391Z,37.27
2018-09-19T10:38:29.979Z,36.53
2018-09-19T10:40:59.477Z,36.86
2018-09-19T10:43:29.024Z,37.04
2018-09-19T10:45:58.586Z,36.51
2018-09-19T10:48:28.192Z,36.67
2018-09-19T10:50:57.744Z,36.05
2018-09-19T10:53:27.372Z,36.00
2018-09-19T10:55:56.937Z,36.25
2018-09-19T10:58:26.583Z,35.49
2018-09-19T11:00:56.131Z,35.95
2018-09-19T11:03:25.752Z,35.72
2018-09-19T11:05:55.906Z,36.18
2018-09-19T11:08:25.555Z,36.48
2018-09-19T11:10:55.112Z,36.31
2018-09-19T11:13:24.704Z,36.30
2018-09-19T11:15:54.303Z,34.99
2018-09-19T11:18:24.077Z,34.37
2018-09-19T11:20:53.585Z,33.01
2018-09-19T11:23:23.236Z,34.90
2018-09-19T11:25:52.825Z,34.23
2018-09-19T11:28:22.363Z,34.97
2018-09-19T11:30:52.084Z,35.01
2018-09-19T11:33:21.687Z,33.93
2018-09-19T11:35:51.263Z,33.39
2018-09-19T11:38:20.869Z,33.34
2018-09-19T11:40:50.371Z,33.82
2018-09-19T11:43:20.124Z,33.97
2018-09-19T11:45:49.671Z,33.67
2018-09-19T11:48:19.161Z,33.31
2018-09-19T11:50:48.762Z,32.72
2018-09-19T11:53:21.150Z,31.93
2018-09-19T11:55:50.761Z,31.98
2018-09-19T11:58:20.300Z,31.26
2018-09-19T12:00:49.856Z,30.16
2018-09-19T12:03:19.471Z,30.12
2018-09-19T12:05:48.996Z,30.02
2018-09-19T12:08:19.118Z,30.12
2018-09-19T12:10:48.667Z,29.80
2018-09-19T12:13:18.157Z,30.45
2018-09-19T12:15:47.827Z,29.77
2018-09-19T12:18:17.439Z,30.73
2018-09-19T12:20:47.001Z,31.27
2018-09-19T12:23:16.507Z,30.62
2018-09-19T12:25:46.094Z,30.64
2018-09-19T12:28:15.691Z,29.36
2018-09-19T12:30:45.340Z,30.19
2018-09-19T12:33:14.887Z,28.96
2018-09-19T12:35:44.455Z,29.47
2018-09-19T12:38:14.110Z,29.89
2018-09-19T12:40:44.087Z,30.26
2018-09-19T12:43:13.722Z,29.90
2018-09-19T12:45:43.436Z,29.31
2018-09-19T12:48:13.136Z,28.96
2018-09-19T12:50:42.644Z,29.06
2018-09-19T12:53:12.352Z,28.94
2018-09-19T12:55:41.900Z,28.64
2018-09-19T12:58:11.529Z,27.38
2018-09-19T13:00:41.167Z,27.56
2018-09-19T13:03:10.715Z,27.79
2018-09-19T13:05:40.284Z,26.90
2018-09-19T13:08:10.017Z,27.92
2018-09-19T13:10:39.802Z,28.13
2018-09-19T13:13:09.428Z,28.83
2018-09-19T13:15:38.994Z,27.96
2018-09-19T13:18:08.570Z,27.49
2018-09-19T13:20:38.149Z,28.73
2018-09-19T13:23:07.838Z,28.44
2018-09-19T13:25:37.494Z,29.32
2018-09-19T13:28:07.049Z,30.28
2018-09-19T13:30:36.612Z,30.50
2018-09-19T13:33:06.251Z,30.11
2018-09-19T13:35:35.818Z,30.07
2018-09-19T13:38:05.524Z,28.97
2018-09-19T13:40:35.092Z,28.71
2018-09-19T13:43:04.758Z,28.32
2018-09-19T13:45:34.560Z,28.54
2018-09-19T13:48:04.139Z,28.64
2018-09-19T13:50:39.463Z,28.00
2018-09-19T13:53:09.551Z,28.52
2018-09-19T13:55:39.103Z,27.69
2018-09-19T13:58:08.644Z,28.18
2018-09-19T14:00:38.947Z,28.17
2018-09-19T14:03:08.530Z,27.75
2018-09-19T14:05:38.179Z,27.56
2018-09-19T14:08:08.091Z,27.48
2018-09-19T14:10:37.669Z,27.99
2018-09-19T14:13:08.543Z,27.48
2018-09-19T14:15:38.954Z,27.56
2018-09-19T14:18:08.950Z,27.48
2018-09-19T14:20:38.442Z,27.37
2018-09-19T14:23:08.020Z,28.17
2018-09-19T14:25:37.847Z,28.02
2018-09-19T14:28:09.387Z,27.92
2018-09-19T14:30:39.248Z,28.11
2018-09-19T14:33:08.890Z,27.91
2018-09-19T14:35:38.495Z,27.74
2018-09-19T14:38:08.039Z,27.64
2018-09-19T14:40:37.600Z,28.61
2018-09-19T14:43:07.242Z,28.62
2018-09-19T14:45:36.796Z,28.77
2018-09-19T14:48:06.432Z,28.58
2018-09-19T14:50:35.923Z,29.10
2018-09-19T14:53:05.479Z,29.53
2018-09-19T14:55:35.015Z,28.95
2018-09-19T14:58:04.598Z,28.92
2018-09-19T15:00:34.148Z,28.76
2018-09-19T15:03:03.660Z,29.30
2018-09-19T15:05:33.211Z,30.07
2018-09-19T15:08:03.008Z,29.89
2018-09-19T15:10:32.659Z,30.88
2018-09-19T15:13:02.266Z,30.65
2018-09-19T15:15:31.872Z,30.80
2018-09-19T15:18:01.410Z,30.89
2018-09-19T15:20:31.015Z,31.97
2018-09-19T15:23:00.892Z,31.00
2018-09-19T15:25:30.400Z,31.34
2018-09-19T15:27:59.991Z,31.04
2018-09-19T15:30:29.492Z,31.38
2018-09-19T15:32:59.158Z,31.28
2018-09-19T15:35:28.639Z,31.01
2018-09-19T15:37:58.196Z,31.17
2018-09-19T15:40:27.749Z,31.25
2018-09-19T15:42:57.270Z,31.40
2018-09-19T15:45:26.829Z,32.55
2018-09-19T15:47:56.407Z,32.74
2018-09-19T15:50:26.029Z,32.30
2018-09-19T15:52:55.555Z,32.44
2018-09-19T15:55:25.129Z,32.82
2018-09-19T15:57:54.669Z,32.42
2018-09-19T16:00:24.347Z,32.82
2018-09-19T16:02:53.875Z,32.88
2018-09-19T16:05:23.431Z,33.07
2018-09-19T16:07:52.918Z,32.61
2018-09-19T16:10:22.455Z,33.31
2018-09-19T16:12:51.950Z,33.28
2018-09-19T16:15:21.549Z,33.20
2018-09-19T16:17:51.018Z,33.40
2018-09-19T16:20:20.550Z,33.42
2018-09-19T16:22:50.114Z,33.92
2018-09-19T16:25:19.672Z,33.71
2018-09-19T16:27:49.215Z,34.16
2018-09-19T16:30:18.777Z,35.35
2018-09-19T16:32:48.307Z,35.32
2018-09-19T16:35:17.843Z,35.90
2018-09-19T16:37:47.350Z,35.94
2018-09-19T16:40:16.979Z,36.37
2018-09-19T16:42:46.501Z,36.42
2018-09-19T16:45:16.059Z,36.00
2018-09-19T16:47:45.556Z,36.44
2018-09-19T16:50:15.256Z,35.88
2018-09-19T16:52:44.756Z,36.15
2018-09-19T16:55:14.298Z,37.08
2018-09-19T16:57:43.836Z,36.62
2018-09-19T17:00:14.671Z,36.94
2018-09-19T17:02:44.392Z,37.06
2018-09-19T17:05:14.083Z,36.88
2018-09-19T17:07:43.995Z,37.60
2018-09-19T17:10:13.514Z,37.67
2018-09-19T17:12:43.036Z,37.08
2018-09-19T17:15:12.641Z,37.28
2018-09-19T17:17:42.159Z,37.97
2018-09-19T17:20:11.888Z,37.91
2018-09-19T17:22:41.443Z,37.94
2018-09-19T17:25:10.992Z,38.68
2018-09-19T17:27:40.572Z,38.28
2018-09-19T17:30:10.168Z,38.66
2018-09-19T17:32:39.672Z,37.78
2018-09-19T17:35:09.263Z,38.32
2018-09-19T17:37:38.755Z,38.34
2018-09-19T17:40:08.400Z,38.99
2018-09-19T17:42:37.915Z,39.08
2018-09-19T17:45:08.068Z,38.97
2018-09-19T17:47:37.600Z,39.18
2018-09-19T17:50:07.980Z,39.40
2018-09-19T17:52:37.531Z,40.16
2018-09-19T17:55:07.102Z,38.28
2018-09-19T17:57:36.663Z,38.76
2018-09-19T18:00:07.820Z,39.08
2018-09-19T18:02:37.358Z,39.33
2018-09-19T18:05:06.983Z,39.41
2018-09-19T18:07:36.493Z,40.16
2018-09-19T18:10:06.158Z,40.61
2018-09-19T18:12:35.667Z,39.94
2018-09-19T18:15:05.380Z,40.41
2018-09-19T18:17:34.931Z,40.75
2018-09-19T18:20:04.498Z,40.65
2018-09-19T18:22:34.085Z,40.91
2018-09-19T18:25:03.633Z,40.62
2018-09-19T18:27:33.194Z,40.83
2018-09-19T18:30:02.727Z,41.12
2018-09-19T18:32:32.308Z,41.48
2018-09-19T18:35:01.863Z,41.43
2018-09-19T18:37:31.460Z,41.67
2018-09-19T18:40:00.985Z,41.19
2018-09-19T18:42:30.527Z,41.59
2018-09-19T18:45:00.045Z,42.13
2018-09-19T18:47:29.589Z,41.79
2018-09-19T18:49:59.193Z,41.66
2018-09-19T18:52:28.694Z,42.36
2018-09-19T18:54:58.190Z,42.73
2018-09-19T18:57:27.743Z,42.51
2018-09-19T18:59:57.230Z,42.42
2018-09-19T19:02:26.802Z,42.11
2018-09-19T19:04:56.444Z,42.90
2018-09-19T19:07:25.996Z,42.78
2018-09-19T19:09:55.467Z,42.22
2018-09-19T19:12:25.002Z,41.98
2018-09-19T19:14:54.569Z,41.72
2018-09-19T19:17:24.079Z,42.47
2018-09-19T19:19:53.627Z,42.48
2018-09-19T19:22:23.184Z,42.70
2018-09-19T19:24:52.691Z,42.39
2018-09-19T19:27:22.267Z,42.28
2018-09-19T19:29:51.874Z,42.18
2018-09-19T19:32:21.490Z,42.58
2018-09-19T19:34:51.019Z,41.96
2018-09-19T19:37:20.550Z,42.32
2018-09-19T19:39:50.084Z,42.62
2018-09-19T19:42:19.596Z,42.35
2018-09-19T19:44:49.201Z,42.57
2018-09-19T19:47:18.811Z,42.70
2018-09-19T19:49:48.376Z,43.15
2018-09-19T19:52:17.940Z,42.99
2018-09-19T19:54:47.551Z,43.37
2018-09-19T19:57:17.107Z,43.06
2018-09-19T19:59:46.616Z,43.27
2018-09-19T20:02:16.199Z,43.66
2018-09-19T20:04:45.778Z,43.55
2018-09-19T20:07:15.321Z,43.50
2018-09-19T20:09:44.863Z,43.90
2018-09-19T20:12:14.544Z,43.71
2018-09-19T20:14:44.053Z,44.06
2018-09-19T20:17:13.602Z,43.75
2018-09-19T20:19:43.106Z,44.71
2018-09-19T20:22:12.700Z,44.83
2018-09-19T20:24:42.203Z,44.67
2018-09-19T20:27:11.763Z,45.44
2018-09-19T20:29:41.364Z,46.01
2018-09-19T20:32:10.856Z,45.34
2018-09-19T20:34:40.395Z,45.43
2018-09-19T20:37:09.943Z,45.81
2018-09-19T20:39:39.443Z,45.96
2018-09-19T20:42:09.018Z,45.82
2018-09-19T20:44:38.515Z,46.34
2018-09-19T20:47:08.060Z,47.04
2018-09-19T20:49:37.693Z,47.10
2018-09-19T20:52:07.264Z,46.85
2018-09-19T20:54:37.455Z,47.12
2018-09-19T20:57:07.132Z,46.56
2018-09-19T20:59:36.691Z,46.16
2018-09-19T21:02:07.203Z,46.93
2018-09-19T21:04:36.889Z,47.09
2018-09-19T21:07:06.347Z,46.68
2018-09-19T21:09:35.888Z,46.22
2018-09-19T21:12:05.440Z,46.68
2018-09-19T21:14:35.062Z,46.37
2018-09-19T21:17:04.604Z,47.46
2018-09-19T21:19:34.133Z,47.01
2018-09-19T21:22:03.798Z,47.58
2018-09-19T21:24:33.258Z,47.21
2018-09-19T21:27:02.786Z,47.26
2018-09-19T21:29:32.344Z,47.74
2018-09-19T21:32:02.017Z,47.38
2018-09-19T21:34:31.630Z,47.45
2018-09-19T21:37:01.252Z,47.67
2018-09-19T21:39:30.829Z,47.34
2018-09-19T21:42:00.384Z,47.36
2018-09-19T21:44:29.889Z,47.95
2018-09-19T21:46:59.438Z,47.62
2018-09-19T21:49:28.953Z,47.10
2018-09-19T21:51:58.596Z,47.14
2018-09-19T21:54:28.087Z,47.42
2018-09-19T21:56:57.627Z,47.36
2018-09-19T21:59:27.139Z,47.82
2018-09-19T22:01:59.092Z,48.42
2018-09-19T22:04:28.765Z,48.32
2018-09-19T22:06:58.322Z,48.15
2018-09-19T22:09:27.917Z,47.90
2018-09-19T22:11:57.518Z,47.94
2018-09-19T22:14:28.042Z,48.03
2018-09-19T22:16:57.586Z,47.93
2018-09-19T22:19:27.103Z,48.47
2018-09-19T22:21:56.673Z,48.56
2018-09-19T22:24:26.253Z,48.43
2018-09-19T22:26:55.799Z,49.14
2018-09-19T22:29:25.339Z,49.32
2018-09-19T22:31:54.918Z,48.93
2018-09-19T22:34:24.639Z,49.24
2018-09-19T22:36:54.122Z,49.93
2018-09-19T22:39:23.707Z,50.07
2018-09-19T22:41:53.297Z,50.01
2018-09-19T22:44:22.849Z,50.21
2018-09-19T22:46:52.383Z,50.53
2018-09-19T22:49:21.928Z,50.88
2018-09-19T22:51:51.453Z,51.14
2018-09-19T22:54:20.962Z,51.45
2018-09-19T22:56:50.515Z,52.06
2018-09-19T22:59:20.036Z,51.95
2018-09-19T23:01:49.628Z,51.84
2018-09-19T23:04:19.143Z,52.40
2018-09-19T23:06:48.752Z,52.81
2018-09-19T23:09:18.235Z,52.28
2018-09-19T23:11:47.759Z,52.38
2018-09-19T23:14:17.224Z,52.38
2018-09-19T23:16:46.764Z,52.98
2018-09-19T23:19:16.337Z,51.89
2018-09-19T23:21:45.980Z,51.74
2018-09-19T23:24:15.515Z,51.52
2018-09-19T23:26:45.037Z,51.44
2018-09-19T23:29:14.618Z,52.31
2018-09-19T23:31:44.103Z,52.07
2018-09-19T23:34:13.736Z,52.43
2018-09-19T23:36:43.260Z,53.59
2018-09-19T23:39:12.899Z,53.41
2018-09-19T23:41:42.383Z,53.92
2018-09-19T23:44:11.910Z,54.06
2018-09-19T23:46:41.472Z,53.92
2018-09-19T23:49:10.954Z,53.82
2018-09-19T23:51:40.516Z,54.64
2018-09-19T23:54:10.018Z,53.95
2018-09-19T23:56:39.642Z,54.79
2018-09-19T23:59:09.192Z,53.75
